createdAt,value
2018-09-14T00:01:52.090Z,376.13
2018-09-14T00:04:20.573Z,385.50
2018-09-14T00:06:49.225Z,369.10
2018-09-14T00:09:17.768Z,374.07
2018-09-14T00:11:46.332Z,377.93
2018-09-14T00:14:14.871Z,377.80
2018-09-14T00:16:43.384Z,391.90
2018-09-14T00:19:11.912Z,402.90
2018-09-14T00:21:40.449Z,408.53
2018-09-14T00:24:08.962Z,392.93
2018-09-14T00:26:37.495Z,391.70
2018-09-14T00:29:06.080Z,385.63
2018-09-14T00:31:34.616Z,401.37
2018-09-14T00:34:03.104Z,407.73
2018-09-14T00:36:31.614Z,446.43
2018-09-14T00:39:00.125Z,453.17
2018-09-14T00:41:28.633Z,468.27
2018-09-14T00:43:57.148Z,477.47
2018-09-14T00:46:25.697Z,470.73
2018-09-14T00:48:54.163Z,473.33
2018-09-14T00:51:22.688Z,481.13
2018-09-14T00:53:51.185Z,474.67
2018-09-14T00:56:19.683Z,481.90
2018-09-14T00:58:48.193Z,471.53
2018-09-14T01:01:16.705Z,482.77
2018-09-14T01:03:45.243Z,484.57
2018-09-14T01:06:13.776Z,502.53
2018-09-14T01:08:42.296Z,516.00
2018-09-14T01:11:10.816Z,531.10
2018-09-14T01:13:39.323Z,521.73
2018-09-14T01:16:07.892Z,513.63
2018-09-14T01:18:36.444Z,528.03
2018-09-14T01:21:04.985Z,530.63
2018-09-14T01:23:33.492Z,505.07
2018-09-14T01:26:02.003Z,529.53
2018-09-14T01:28:30.568Z,556.40
2018-09-14T01:30:59.038Z,590.97
2018-09-14T01:33:27.608Z,622.30
2018-09-14T01:36:01.505Z,634.40
2018-09-14T01:38:30.021Z,613.77
2018-09-14T01:40:58.589Z,600.57
2018-09-14T01:43:27.135Z,548.60
2018-09-14T01:45:55.648Z,580.50
2018-09-14T01:48:24.107Z,584.57
2018-09-14T01:50:52.612Z,615.13
2018-09-14T01:53:21.131Z,631.30
2018-09-14T01:55:49.671Z,627.83
2018-09-14T01:58:18.171Z,581.70
2018-09-14T02:00:46.700Z,548.23
2018-09-14T02:03:15.469Z,518.87
2018-09-14T02:05:43.913Z,500.97
2018-09-14T02:08:12.442Z,498.53
2018-09-14T02:10:40.990Z,512.57
2018-09-14T02:13:09.533Z,508.53
2018-09-14T02:15:38.021Z,522.53
2018-09-14T02:18:06.528Z,526.37
2018-09-14T02:20:35.039Z,519.07
2018-09-14T02:23:03.590Z,526.40
2018-09-14T02:25:32.126Z,509.90
2018-09-14T02:28:00.660Z,507.17
2018-09-14T02:30:29.176Z,507.17
2018-09-14T02:32:57.665Z,500.23
2018-09-14T02:35:26.115Z,536.17
2018-09-14T02:37:54.604Z,509.03
2018-09-14T02:40:23.117Z,480.87
2018-09-14T02:42:51.592Z,478.20
2018-09-14T02:45:20.121Z,413.23
2018-09-14T02:47:48.637Z,345.33
2018-09-14T02:50:17.117Z,371.70
2018-09-14T02:52:45.606Z,397.70
2018-09-14T02:55:14.147Z,468.20
2018-09-14T02:57:43.179Z,479.47
2018-09-14T03:00:11.842Z,442.20
2018-09-14T03:02:40.340Z,424.43
2018-09-14T03:05:08.895Z,397.70
2018-09-14T03:07:37.398Z,385.53
2018-09-14T03:10:06.057Z,366.63
2018-09-14T03:12:34.616Z,356.40
2018-09-14T03:15:03.172Z,339.03
2018-09-14T03:17:31.634Z,325.60
2018-09-14T03:20:00.168Z,362.10
2018-09-14T03:22:28.612Z,403.37
2018-09-14T03:24:57.107Z,413.43
2018-09-14T03:27:25.577Z,413.33
2018-09-14T03:29:54.058Z,413.53
2018-09-14T03:32:22.657Z,418.47
2018-09-14T03:34:51.163Z,424.10
2018-09-14T03:37:19.657Z,443.30
2018-09-14T03:39:48.138Z,443.17
2018-09-14T03:42:16.684Z,429.23
2018-09-14T03:44:45.173Z,376.07
2018-09-14T03:47:13.660Z,296.57
2018-09-14T03:49:42.136Z,250.73
2018-09-14T03:52:10.667Z,195.43
2018-09-14T03:54:39.184Z,177.00
2018-09-14T03:57:07.675Z,154.13
2018-09-14T03:59:38.193Z,104.30
2018-09-14T04:02:07.623Z,86.63
2018-09-14T04:04:36.692Z,69.43
2018-09-14T04:07:05.177Z,59.70
2018-09-14T04:09:33.645Z,46.73
2018-09-14T04:12:02.127Z,49.30
2018-09-14T04:14:30.636Z,49.10
2018-09-14T04:16:59.089Z,43.53
2018-09-14T04:19:27.623Z,49.50
2018-09-14T04:21:56.148Z,42.10
2018-09-14T04:24:24.596Z,33.27
2018-09-14T04:26:53.074Z,29.07
2018-09-14T04:29:21.596Z,25.43
2018-09-14T04:31:50.129Z,24.00
2018-09-14T04:34:18.652Z,23.47
2018-09-14T04:36:47.163Z,20.80
2018-09-14T04:39:15.668Z,20.47
2018-09-14T04:41:44.240Z,18.90
2018-09-14T04:44:12.777Z,17.50
2018-09-14T04:46:41.285Z,19.17
2018-09-14T04:49:09.798Z,17.90
2018-09-14T04:51:38.272Z,20.53
2018-09-14T04:54:06.807Z,18.60
2018-09-14T04:56:35.306Z,22.57
2018-09-14T04:59:03.852Z,25.70
2018-09-14T05:01:32.386Z,24.90
2018-09-14T05:04:00.894Z,26.97
2018-09-14T05:06:29.450Z,28.97
2018-09-14T05:08:57.944Z,31.17
2018-09-14T05:11:26.537Z,28.27
2018-09-14T05:13:55.624Z,31.17
2018-09-14T05:16:24.137Z,37.70
2018-09-14T05:18:52.619Z,38.87
2018-09-14T05:21:21.159Z,57.23
2018-09-14T05:23:49.599Z,69.27
2018-09-14T05:26:18.093Z,73.73
2018-09-14T05:28:46.586Z,87.63
2018-09-14T05:31:15.068Z,93.50
2018-09-14T05:33:43.517Z,92.17
2018-09-14T05:36:12.018Z,88.90
2018-09-14T05:38:40.467Z,96.40
2018-09-14T05:41:08.962Z,90.83
2018-09-14T05:43:37.445Z,84.30
2018-09-14T05:46:06.005Z,76.17
2018-09-14T05:48:34.472Z,79.47
2018-09-14T05:51:02.993Z,83.53
2018-09-14T05:53:31.445Z,90.47
2018-09-14T05:55:59.951Z,86.83
2018-09-14T05:58:28.480Z,96.30
2018-09-14T06:00:56.990Z,96.83
2018-09-14T06:03:25.469Z,98.83
2018-09-14T06:05:53.969Z,98.53
2018-09-14T06:08:22.455Z,96.23
2018-09-14T06:10:51.008Z,113.37
2018-09-14T06:13:19.583Z,89.47
2018-09-14T06:15:48.099Z,86.20
2018-09-14T06:18:16.599Z,85.63
2018-09-14T06:20:45.180Z,76.70
2018-09-14T06:23:13.723Z,79.00
2018-09-14T06:28:16.991Z,91.67
2018-09-14T06:30:45.506Z,96.37
2018-09-14T06:33:14.004Z,99.03
2018-09-14T06:35:42.466Z,100.40
2018-09-14T06:38:11.031Z,110.53
2018-09-14T06:40:39.496Z,101.63
2018-09-14T06:43:07.999Z,103.40
2018-09-14T06:45:36.472Z,102.53
2018-09-14T06:48:04.983Z,105.53
2018-09-14T06:50:33.468Z,101.17
2018-09-14T06:53:02.011Z,100.63
2018-09-14T06:55:30.622Z,91.23
2018-09-14T06:57:59.129Z,93.37
2018-09-14T07:00:27.746Z,92.70
2018-09-14T07:02:56.268Z,108.07
2018-09-14T07:05:24.761Z,115.97
2018-09-14T07:07:53.268Z,137.87
2018-09-14T07:10:21.724Z,131.03
2018-09-14T07:12:50.201Z,170.27
2018-09-14T07:15:18.704Z,182.27
2018-09-14T07:17:47.206Z,196.03
2018-09-14T07:20:15.734Z,246.17
2018-09-14T07:22:44.291Z,273.90
2018-09-14T07:25:12.802Z,278.30
2018-09-14T07:27:41.539Z,298.60
2018-09-14T07:30:10.056Z,337.93
2018-09-14T07:32:38.609Z,361.07
2018-09-14T07:35:07.131Z,422.63
2018-09-14T07:37:35.646Z,445.57
2018-09-14T07:40:04.184Z,473.97
2018-09-14T07:42:32.735Z,544.27
2018-09-14T07:45:01.275Z,543.40
2018-09-14T07:47:29.815Z,518.73
2018-09-14T07:49:58.369Z,459.90
2018-09-14T07:52:27.428Z,391.47
2018-09-14T07:54:55.959Z,336.40
2018-09-14T07:57:24.532Z,336.80
2018-09-14T07:59:53.037Z,325.90
2018-09-14T08:02:21.719Z,346.43
2018-09-14T08:04:50.225Z,350.67
2018-09-14T08:07:18.724Z,359.07
2018-09-14T08:09:47.795Z,327.43
2018-09-14T08:12:16.277Z,339.67
2018-09-14T08:14:44.850Z,296.90
2018-09-14T08:17:13.364Z,289.47
2018-09-14T08:19:41.927Z,305.33
2018-09-14T08:22:10.410Z,287.10
2018-09-14T08:24:38.989Z,274.60
2018-09-14T08:27:07.526Z,251.30
2018-09-14T08:29:36.041Z,263.37
2018-09-14T08:32:04.581Z,301.00
2018-09-14T08:34:33.165Z,304.47
2018-09-14T08:37:01.623Z,153.30
2018-09-14T08:39:30.129Z,116.97
2018-09-14T08:41:58.682Z,88.80
2018-09-14T08:44:27.270Z,75.07
2018-09-14T08:46:55.851Z,61.13
2018-09-14T08:49:24.621Z,34.13
2018-09-14T08:51:53.148Z,36.57
2018-09-14T08:54:21.666Z,62.87
2018-09-14T08:56:50.247Z,61.90
2018-09-14T08:59:18.916Z,94.33
2018-09-14T09:01:47.444Z,157.37
2018-09-14T09:04:15.952Z,203.17
2018-09-14T09:06:44.578Z,197.00
2018-09-14T09:09:13.670Z,234.80
2018-09-14T09:11:42.685Z,221.23
2018-09-14T09:14:11.247Z,242.60
2018-09-14T09:16:40.371Z,206.53
2018-09-14T09:19:09.370Z,300.57
2018-09-14T09:21:37.849Z,222.30
2018-09-14T09:24:06.439Z,235.57
2018-09-14T09:26:34.929Z,240.37
2018-09-14T09:29:03.497Z,150.03
2018-09-14T09:31:32.015Z,166.13
2018-09-14T09:34:00.525Z,227.13
2018-09-14T09:36:28.968Z,257.53
2018-09-14T09:38:57.483Z,343.17
2018-09-14T09:41:25.977Z,342.17
2018-09-14T09:43:54.548Z,320.50
2018-09-14T09:46:23.048Z,306.03
2018-09-14T09:48:51.672Z,316.73
2018-09-14T09:51:20.353Z,342.83
2018-09-14T09:53:48.716Z,313.10
2018-09-14T09:56:17.253Z,251.20
2018-09-14T09:58:45.776Z,267.27
2018-09-14T10:01:19.496Z,264.37
2018-09-14T10:03:53.408Z,272.90
2018-09-14T10:06:23.865Z,284.00
2018-09-14T10:08:52.688Z,304.83
2018-09-14T10:11:21.209Z,353.37
2018-09-14T10:13:50.001Z,369.57
2018-09-14T10:16:18.575Z,398.30
2018-09-14T10:18:47.072Z,415.70
2018-09-14T10:21:15.700Z,423.30
2018-09-14T10:23:44.139Z,468.83
2018-09-14T10:26:12.590Z,550.23
2018-09-14T10:28:41.116Z,614.03
2018-09-14T10:31:09.842Z,617.43
2018-09-14T10:33:38.346Z,619.77
2018-09-14T10:36:06.932Z,627.03
2018-09-14T10:38:35.436Z,605.90
2018-09-14T10:41:03.939Z,553.67
2018-09-14T10:43:32.498Z,517.90
2018-09-14T10:46:01.020Z,565.00
2018-09-14T10:48:29.516Z,531.87
2018-09-14T10:50:58.223Z,489.47
2018-09-14T10:53:26.755Z,467.93
2018-09-14T10:55:55.257Z,521.70
2018-09-14T10:58:24.045Z,555.40
2018-09-14T11:00:52.611Z,544.47
2018-09-14T11:03:21.110Z,564.97
2018-09-14T11:05:49.601Z,613.03
2018-09-14T11:08:18.167Z,559.33
2018-09-14T11:10:46.684Z,508.50
2018-09-14T11:13:15.189Z,537.20
2018-09-14T11:15:43.667Z,482.63
2018-09-14T11:18:12.237Z,644.77
2018-09-14T11:20:40.791Z,616.37
2018-09-14T11:23:09.317Z,654.47
2018-09-14T11:25:37.867Z,629.37
2018-09-14T11:28:06.557Z,679.60
2018-09-14T11:30:35.110Z,693.97
2018-09-14T11:33:03.614Z,700.00
2018-09-14T11:35:32.182Z,624.37
2018-09-14T11:38:00.795Z,613.47
2018-09-14T11:40:29.331Z,642.77
2018-09-14T11:42:57.833Z,727.33
2018-09-14T11:45:26.547Z,684.07
2018-09-14T11:47:55.101Z,684.93
2018-09-14T11:50:23.637Z,811.37
2018-09-14T11:52:52.156Z,748.00
2018-09-14T11:55:20.703Z,819.77
2018-09-14T11:57:49.243Z,842.30
2018-09-14T12:00:17.809Z,835.63
2018-09-14T12:02:46.354Z,853.43
2018-09-14T12:05:14.845Z,863.47
2018-09-14T12:07:43.439Z,847.27
2018-09-14T12:10:11.978Z,887.00
2018-09-14T12:12:40.481Z,878.07
2018-09-14T12:15:09.053Z,878.67
2018-09-14T12:17:37.581Z,882.57
2018-09-14T12:20:06.161Z,872.93
2018-09-14T12:22:34.660Z,879.73
2018-09-14T12:25:03.214Z,867.33
2018-09-14T12:27:31.762Z,857.53
2018-09-14T12:30:00.261Z,860.70
2018-09-14T12:32:28.804Z,874.53
2018-09-14T12:34:57.357Z,887.27
2018-09-14T12:37:25.895Z,872.27
2018-09-14T12:39:54.445Z,847.27
2018-09-14T12:42:22.956Z,840.87
2018-09-14T12:44:51.501Z,854.93
2018-09-14T12:47:20.054Z,853.37
2018-09-14T12:49:48.622Z,857.67
2018-09-14T12:52:17.407Z,860.33
2018-09-14T12:54:45.961Z,864.43
2018-09-14T12:57:14.692Z,826.20
2018-09-14T12:59:43.258Z,847.87
2018-09-14T13:02:11.765Z,840.73
2018-09-14T13:04:40.313Z,843.37
2018-09-14T13:07:08.907Z,836.00
2018-09-14T13:09:37.752Z,859.23
2018-09-14T13:12:06.346Z,860.20
2018-09-14T13:14:34.902Z,801.67
2018-09-14T13:17:03.465Z,802.20
2018-09-14T13:19:32.015Z,836.17
2018-09-14T13:22:00.538Z,811.67
2018-09-14T13:24:29.069Z,807.10
2018-09-14T13:26:57.618Z,825.73
2018-09-14T13:29:26.145Z,811.33
2018-09-14T13:31:55.737Z,815.87
2018-09-14T13:34:24.305Z,813.30
2018-09-14T13:36:52.849Z,803.83
2018-09-14T13:39:21.342Z,798.90
2018-09-14T13:41:49.895Z,793.07
2018-09-14T13:44:18.433Z,808.97
2018-09-14T13:46:46.935Z,802.80
2018-09-14T13:49:15.470Z,811.77
2018-09-14T13:51:43.959Z,797.80
2018-09-14T13:54:12.488Z,799.67
2018-09-14T13:56:41.099Z,781.00
2018-09-14T13:59:09.608Z,773.70
2018-09-14T14:01:38.230Z,769.27
2018-09-14T14:04:06.743Z,754.90
2018-09-14T14:06:35.288Z,733.27
2018-09-14T14:09:04.227Z,732.97
2018-09-14T14:11:32.798Z,716.23
2018-09-14T14:14:01.349Z,704.30
2018-09-14T14:16:30.021Z,705.43
2018-09-14T14:18:58.596Z,711.37
2018-09-14T14:21:27.112Z,731.33
2018-09-14T14:23:55.646Z,730.97
2018-09-14T14:26:24.169Z,722.30
2018-09-14T14:28:52.664Z,713.13
2018-09-14T14:31:21.216Z,696.30
2018-09-14T14:33:50.058Z,708.33
2018-09-14T14:36:18.564Z,698.33
2018-09-14T14:38:47.105Z,714.73
2018-09-14T14:41:15.657Z,700.50
2018-09-14T14:43:44.188Z,693.80
2018-09-14T14:46:13.128Z,685.43
2018-09-14T14:48:41.689Z,684.43
2018-09-14T14:51:10.217Z,674.80
2018-09-14T14:53:38.761Z,685.07
2018-09-14T14:56:07.536Z,690.17
2018-09-14T14:58:36.073Z,700.13
2018-09-14T15:01:04.572Z,703.47
2018-09-14T15:03:33.100Z,686.70
2018-09-14T15:06:01.637Z,705.77
2018-09-14T15:08:30.194Z,695.37
2018-09-14T15:10:59.429Z,719.90
2018-09-14T15:13:28.227Z,717.00
2018-09-14T15:15:56.801Z,735.30
2018-09-14T15:18:25.521Z,714.10
2018-09-14T15:20:54.104Z,720.00
2018-09-14T15:23:22.615Z,742.03
2018-09-14T15:25:51.173Z,712.57
2018-09-14T15:28:21.282Z,733.10
2018-09-14T15:30:49.817Z,720.23
2018-09-14T15:33:18.369Z,740.37
2018-09-14T15:35:46.903Z,751.23
2018-09-14T15:38:15.521Z,751.87
2018-09-14T15:40:44.064Z,736.37
2018-09-14T15:43:12.629Z,759.60
2018-09-14T15:45:41.172Z,761.40
2018-09-14T15:48:09.717Z,755.63
2018-09-14T15:50:38.257Z,750.93
2018-09-14T15:53:06.774Z,754.87
2018-09-14T15:55:35.329Z,758.73
2018-09-14T15:58:03.890Z,794.73
2018-09-14T16:00:32.441Z,776.90
2018-09-14T16:03:00.995Z,767.33
2018-09-14T16:05:29.549Z,789.53
2018-09-14T16:07:58.037Z,763.03
2018-09-14T16:10:26.602Z,752.73
2018-09-14T16:12:55.190Z,770.77
2018-09-14T16:15:23.771Z,767.97
2018-09-14T16:17:52.421Z,761.53
2018-09-14T16:20:20.931Z,757.73
2018-09-14T16:22:49.465Z,736.27
2018-09-14T16:25:18.062Z,630.97
2018-09-14T16:27:46.738Z,533.37
2018-09-14T16:30:15.418Z,585.20
2018-09-14T16:32:44.024Z,635.00
2018-09-14T16:35:12.581Z,648.17
2018-09-14T16:37:41.141Z,642.50
2018-09-14T16:40:09.661Z,633.03
2018-09-14T16:42:38.374Z,624.50
2018-09-14T16:45:07.304Z,624.23
2018-09-14T16:47:36.023Z,611.57
2018-09-14T16:50:04.626Z,607.53
2018-09-14T16:52:33.135Z,614.00
2018-09-14T16:55:01.713Z,620.90
2018-09-14T16:57:30.238Z,593.00
2018-09-14T16:59:58.785Z,553.63
2018-09-14T17:02:27.328Z,557.10
2018-09-14T17:04:55.861Z,551.13
2018-09-14T17:07:24.405Z,553.50
2018-09-14T17:09:52.957Z,520.07
2018-09-14T17:12:21.528Z,518.27
2018-09-14T17:14:50.081Z,452.43
2018-09-14T17:17:18.579Z,444.37
2018-09-14T17:19:47.114Z,434.20
2018-09-14T17:22:15.626Z,386.93
2018-09-14T17:24:44.345Z,374.33
2018-09-14T17:27:12.868Z,355.50
2018-09-14T17:29:41.469Z,388.97
2018-09-14T17:32:10.053Z,341.80
2018-09-14T17:34:38.589Z,343.23
2018-09-14T17:37:07.185Z,383.40
2018-09-14T17:39:35.718Z,411.03
2018-09-14T17:42:04.279Z,394.63
2018-09-14T17:44:32.830Z,416.37
2018-09-14T17:47:01.361Z,505.20
2018-09-14T17:49:29.881Z,500.03
2018-09-14T17:51:58.437Z,539.43
2018-09-14T17:54:27.016Z,535.07
2018-09-14T17:56:55.591Z,535.77
2018-09-14T17:59:24.106Z,489.20
2018-09-14T18:01:52.666Z,505.27
2018-09-14T18:04:21.412Z,479.40
2018-09-14T18:06:49.996Z,488.97
2018-09-14T18:09:18.496Z,508.23
2018-09-14T18:11:47.109Z,510.57
2018-09-14T18:14:15.636Z,468.73
2018-09-14T18:16:44.213Z,491.30
2018-09-14T18:19:12.858Z,483.77
2018-09-14T18:21:41.400Z,473.23
2018-09-14T18:24:09.922Z,508.37
2018-09-14T18:26:38.413Z,470.20
2018-09-14T18:29:06.976Z,471.87
2018-09-14T18:31:35.536Z,466.83
2018-09-14T18:34:04.121Z,463.93
2018-09-14T18:36:32.645Z,479.07
2018-09-14T18:39:01.186Z,454.63
2018-09-14T18:41:29.755Z,470.70
2018-09-14T18:43:58.297Z,437.83
2018-09-14T18:46:26.884Z,438.60
2018-09-14T18:48:55.414Z,431.67
2018-09-14T18:51:23.921Z,445.83
2018-09-14T18:53:52.448Z,420.53
2018-09-14T18:56:21.004Z,377.47
2018-09-14T18:58:49.549Z,330.13
2018-09-14T19:01:18.069Z,297.70
2018-09-14T19:03:46.666Z,267.40
2018-09-14T19:06:15.192Z,283.73
2018-09-14T19:08:43.760Z,300.97
2018-09-14T19:11:12.329Z,269.47
2018-09-14T19:13:40.842Z,254.40
2018-09-14T19:18:44.221Z,220.80
2018-09-14T19:21:12.799Z,219.90
2018-09-14T19:23:41.303Z,205.60
2018-09-14T19:26:09.844Z,202.53
2018-09-14T19:28:38.472Z,209.03
2018-09-14T19:31:07.060Z,196.33
2018-09-14T19:33:35.693Z,200.40
2018-09-14T19:36:04.244Z,213.83
2018-09-14T19:38:32.946Z,229.67
2018-09-14T19:41:01.379Z,243.50
2018-09-14T19:43:29.934Z,270.40
2018-09-14T19:45:58.432Z,273.40
2018-09-14T19:48:26.993Z,296.07
2018-09-14T19:50:55.536Z,301.40
2018-09-14T19:53:24.088Z,300.93
2018-09-14T19:55:52.626Z,303.00
2018-09-14T19:58:21.161Z,314.47
2018-09-14T20:00:49.825Z,289.33
2018-09-14T20:03:18.383Z,270.47
2018-09-14T20:05:46.898Z,246.20
2018-09-14T20:08:15.469Z,183.90
2018-09-14T20:10:43.981Z,147.17
2018-09-14T20:13:12.512Z,121.93
2018-09-14T20:15:41.036Z,111.33
2018-09-14T20:18:10.134Z,151.37
2018-09-14T20:20:38.614Z,223.30
2018-09-14T20:23:07.612Z,283.97
2018-09-14T20:25:36.184Z,294.63
2018-09-14T20:28:04.726Z,281.57
2018-09-14T20:30:33.344Z,270.00
2018-09-14T20:33:01.808Z,272.70
2018-09-14T20:35:30.715Z,233.37
2018-09-14T20:37:59.248Z,193.17
2018-09-14T20:40:27.775Z,138.53
2018-09-14T20:42:56.380Z,111.67
2018-09-14T20:45:24.898Z,115.60
2018-09-14T20:47:53.462Z,102.47
2018-09-14T20:50:22.020Z,93.90
2018-09-14T20:52:50.609Z,89.03
2018-09-14T20:55:19.106Z,87.87
2018-09-14T20:57:49.083Z,64.00
2018-09-14T21:00:18.562Z,70.73
2018-09-14T21:02:47.678Z,62.43
2018-09-14T21:05:16.238Z,74.80
2018-09-14T21:07:44.792Z,72.77
2018-09-14T21:10:13.337Z,74.20
2018-09-14T21:12:41.887Z,72.97
2018-09-14T21:15:10.577Z,56.83
2018-09-14T21:17:39.128Z,43.70
2018-09-14T21:20:07.723Z,43.37
2018-09-14T21:22:36.266Z,42.53
2018-09-14T21:25:04.819Z,38.97
2018-09-14T21:27:33.349Z,34.43
2018-09-14T21:30:01.884Z,34.90
2018-09-14T21:32:30.445Z,33.17
2018-09-14T21:34:59.380Z,34.83
2018-09-14T21:37:27.937Z,34.37
2018-09-14T21:39:56.609Z,35.13
2018-09-14T21:42:25.147Z,38.13
2018-09-14T21:44:55.701Z,33.57
2018-09-14T21:47:24.568Z,37.37
2018-09-14T21:49:53.123Z,33.67
2018-09-14T21:52:21.688Z,36.27
2018-09-14T21:54:51.826Z,37.60
2018-09-14T21:57:22.104Z,36.50
2018-09-14T21:59:50.697Z,38.17
2018-09-14T22:02:19.303Z,38.20
2018-09-14T22:04:48.105Z,39.53
2018-09-14T22:07:16.810Z,42.23
2018-09-14T22:09:46.145Z,38.00
2018-09-14T22:12:14.734Z,51.30
2018-09-14T22:14:44.469Z,41.30
2018-09-14T22:17:13.013Z,136.13
2018-09-14T22:19:41.997Z,226.57
2018-09-14T22:22:10.570Z,316.33
2018-09-14T22:24:39.114Z,384.83
2018-09-14T22:27:07.652Z,402.87
2018-09-14T22:29:37.812Z,386.80
2018-09-14T22:32:06.689Z,380.03
2018-09-14T22:34:35.245Z,387.43
2018-09-14T22:37:04.327Z,460.17
2018-09-14T22:39:32.945Z,534.60
2018-09-14T22:42:01.596Z,458.50
2018-09-14T22:44:30.128Z,407.80
2018-09-14T22:46:58.647Z,261.07
2018-09-14T22:49:27.241Z,419.60
2018-09-14T22:51:55.977Z,440.77
2018-09-14T22:54:24.517Z,503.93
2018-09-14T22:56:53.098Z,529.20
2018-09-14T22:59:21.649Z,494.20
2018-09-14T23:01:52.176Z,490.53
2018-09-14T23:04:20.957Z,476.87
2018-09-14T23:06:50.701Z,480.50
2018-09-14T23:09:19.284Z,537.17
2018-09-14T23:11:47.810Z,573.57
2018-09-14T23:14:16.357Z,626.53
2018-09-14T23:16:44.869Z,645.70
2018-09-14T23:19:15.559Z,651.77
2018-09-14T23:21:44.156Z,633.70
2018-09-14T23:24:12.697Z,654.10
2018-09-14T23:26:41.320Z,645.27
2018-09-14T23:29:09.865Z,673.87
2018-09-14T23:31:38.380Z,654.00
2018-09-14T23:34:07.100Z,580.53
2018-09-14T23:36:35.629Z,572.60
2018-09-14T23:39:05.856Z,573.73
2018-09-14T23:41:34.389Z,567.40
2018-09-14T23:44:02.904Z,604.10
2018-09-14T23:46:31.438Z,577.97
2018-09-14T23:48:59.989Z,587.97
2018-09-14T23:51:28.521Z,636.67
2018-09-14T23:53:57.059Z,663.37
2018-09-14T23:56:25.554Z,705.43
2018-09-14T23:58:54.092Z,684.00
